Time;durP1;ratioP1;P1;durP2;ratioP2;P2;SDS_P1;SDS_P2;PMS_P1;PMS_P2;Temp;Humidity;BMP_temperature;BMP_pressure;BME280_temperature;BME280_humidity;BME280_pressure;Samples;Min_cycle;Max_cycle;Signal;HPM_P1;HPM_P2
2022/01/11 00:02:02;;;;;;;23.90;15.07;;;1.30;99.90;;;;;;5072208;28;20200;-73
2022/01/11 00:04:31;;;;;;;20.40;12.60;;;1.20;99.90;;;;;;5072343;28;20230;-73
2022/01/11 00:06:59;;;;;;;20.83;13.80;;;1.20;99.90;;;;;;5072413;28;20211;-74
2022/01/11 00:09:33;;;;;;;19.70;13.38;;;1.20;99.90;;;;;;5072354;28;20212;-73
2022/01/11 00:12:00;;;;;;;19.90;13.68;;;1.20;99.90;;;;;;5071515;28;20228;-73
2022/01/11 00:14:28;;;;;;;17.40;12.65;;;1.20;99.90;;;;;;5072242;28;20227;-73
2022/01/11 00:16:55;;;;;;;20.05;14.05;;;1.20;99.90;;;;;;5072476;28;20204;-74
2022/01/11 00:19:21;;;;;;;21.60;13.57;;;1.20;99.90;;;;;;5071879;28;20203;-74
2022/01/11 00:21:50;;;;;;;19.70;12.45;;;1.20;99.90;;;;;;5071798;28;20197;-73
2022/01/11 00:24:29;;;;;;;19.35;13.15;;;1.20;99.90;;;;;;5072013;28;20232;-74
2022/01/11 00:27:01;;;;;;;19.55;13.95;;;1.20;99.90;;;;;;5071813;28;20196;-74
2022/01/11 00:29:29;;;;;;;19.08;12.93;;;1.20;99.90;;;;;;5071975;28;20200;-74
2022/01/11 00:32:00;;;;;;;21.08;14.30;;;1.30;99.90;;;;;;5071249;28;20208;-74
2022/01/11 00:34:38;;;;;;;26.27;13.65;;;1.30;99.90;;;;;;5071553;28;20217;-74
2022/01/11 00:37:06;;;;;;;21.70;12.93;;;1.30;99.90;;;;;;5071803;28;20191;-74
2022/01/11 00:39:33;;;;;;;23.45;13.15;;;1.30;99.90;;;;;;5071768;28;20684;-74
2022/01/11 00:42:00;;;;;;;19.48;14.07;;;1.30;99.90;;;;;;5070974;28;20633;-74
2022/01/11 00:44:27;;;;;;;21.88;13.32;;;1.30;99.90;;;;;;5071676;28;20228;-74
2022/01/11 00:46:53;;;;;;;20.20;14.35;;;1.30;99.90;;;;;;5071596;28;20245;-74
2022/01/11 00:49:21;;;;;;;20.45;13.80;;;1.20;99.90;;;;;;5071808;28;20207;-74
2022/01/11 00:51:47;;;;;;;22.48;13.80;;;1.20;99.90;;;;;;5071246;28;20213;-74
2022/01/11 00:54:15;;;;;;;19.27;13.00;;;1.20;99.90;;;;;;5071688;28;20219;-74
2022/01/11 00:56:42;;;;;;;23.02;13.57;;;1.20;99.90;;;;;;5071692;28;20196;-74
2022/01/11 00:59:09;;;;;;;18.27;12.55;;;1.20;99.90;;;;;;5071478;28;20603;-73
2022/01/11 01:01:37;;;;;;;22.58;13.98;;;1.20;99.90;;;;;;5071104;28;20258;-75
2022/01/11 01:04:05;;;;;;;18.52;13.57;;;1.20;99.90;;;;;;5071522;28;20234;-75
2022/01/11 01:06:32;;;;;;;22.00;13.35;;;1.30;99.90;;;;;;5071938;28;20663;-74
2022/01/11 01:08:59;;;;;;;23.95;14.00;;;1.20;99.90;;;;;;5071257;28;20626;-73
2022/01/11 01:11:27;;;;;;;19.60;12.50;;;1.20;99.90;;;;;;5070761;28;20197;-73
2022/01/11 01:13:54;;;;;;;17.80;12.18;;;1.20;99.90;;;;;;5071792;28;20235;-73
2022/01/11 01:16:21;;;;;;;16.90;12.27;;;1.20;99.90;;;;;;5071520;28;20270;-73
2022/01/11 01:18:48;;;;;;;18.65;12.35;;;1.20;99.90;;;;;;5071132;28;20204;-73
2022/01/11 01:21:15;;;;;;;18.63;13.35;;;1.20;99.90;;;;;;5070657;28;20286;-73
2022/01/11 01:23:41;;;;;;;21.50;12.43;;;1.20;99.90;;;;;;5070352;28;20231;-73
2022/01/11 01:26:09;;;;;;;21.70;14.25;;;1.20;99.90;;;;;;5070958;28;20212;-73
2022/01/11 01:28:37;;;;;;;18.35;12.73;;;1.10;99.90;;;;;;5070805;28;20208;-73
2022/01/11 01:31:04;;;;;;;19.73;12.77;;;1.10;99.90;;;;;;5070501;28;20211;-73
2022/01/11 01:33:32;;;;;;;21.88;13.95;;;1.10;99.90;;;;;;5070821;28;20201;-73
2022/01/11 01:36:02;;;;;;;24.30;14.13;;;1.10;99.90;;;;;;5071240;28;20309;-73
2022/01/11 01:38:30;;;;;;;21.40;14.13;;;1.10;99.90;;;;;;5071044;28;20240;-73
2022/01/11 01:41:01;;;;;;;24.17;14.00;;;1.00;99.90;;;;;;5070451;28;20286;-73
2022/01/11 01:43:29;;;;;;;24.17;13.35;;;1.00;99.90;;;;;;5070685;28;20242;-73
2022/01/11 01:45:59;;;;;;;24.70;14.35;;;1.00;99.90;;;;;;5071108;28;20208;-73
2022/01/11 01:48:26;;;;;;;20.15;13.57;;;1.00;99.90;;;;;;5070653;28;20200;-73
2022/01/11 01:50:53;;;;;;;23.70;13.73;;;1.00;99.90;;;;;;5070423;28;20204;-73
2022/01/11 01:53:20;;;;;;;19.65;13.07;;;0.90;99.90;;;;;;5070525;28;20196;-73
2022/01/11 01:55:48;;;;;;;24.83;13.60;;;1.00;99.90;;;;;;5070894;28;20205;-72
2022/01/11 01:58:16;;;;;;;24.52;14.45;;;1.00;99.90;;;;;;5070499;28;20203;-72
2022/01/11 02:00:46;;;;;;;25.13;15.38;;;1.00;99.90;;;;;;5070652;28;20200;-72
2022/01/11 02:03:17;;;;;;;19.30;13.10;;;1.00;99.90;;;;;;5069740;28;20204;-73
2022/01/11 02:05:44;;;;;;;21.15;12.90;;;1.00;99.90;;;;;;5070648;28;20507;-73
2022/01/11 02:08:13;;;;;;;18.92;14.05;;;1.10;99.90;;;;;;5070167;28;20200;-74
2022/01/11 02:10:39;;;;;;;22.20;13.40;;;1.10;99.90;;;;;;5070441;28;20261;-74
2022/01/11 02:13:08;;;;;;;19.08;12.82;;;1.10;99.90;;;;;;5069759;28;20207;-74
2022/01/11 02:15:35;;;;;;;24.05;12.75;;;1.10;99.90;;;;;;5070365;28;20216;-74
2022/01/11 02:18:10;;;;;;;19.80;13.68;;;1.10;99.90;;;;;;5070076;28;20208;-74
2022/01/11 02:20:39;;;;;;;19.67;13.52;;;1.10;99.90;;;;;;5070213;28;20204;-74
2022/01/11 02:23:07;;;;;;;17.55;12.55;;;1.20;99.90;;;;;;5069641;28;20203;-74
2022/01/11 02:25:34;;;;;;;21.63;13.57;;;1.20;99.90;;;;;;5070440;28;20243;-74
2022/01/11 02:28:01;;;;;;;21.50;14.13;;;1.20;99.90;;;;;;5070158;28;20207;-74
2022/01/11 02:30:32;;;;;;;21.73;13.73;;;1.20;99.90;;;;;;5070034;28;20208;-74
2022/01/11 02:32:58;;;;;;;21.02;12.95;;;1.20;99.90;;;;;;5069910;28;20584;-73
2022/01/11 02:35:25;;;;;;;20.85;14.32;;;1.20;99.90;;;;;;5070685;28;20220;-75
2022/01/11 02:37:54;;;;;;;18.48;13.00;;;1.20;99.90;;;;;;5074232;28;20567;-73
2022/01/11 02:40:20;;;;;;;20.33;13.23;;;1.20;99.90;;;;;;5073880;28;20691;-73
2022/01/11 02:42:47;;;;;;;19.73;12.43;;;1.20;99.90;;;;;;5073677;28;20211;-73
2022/01/11 02:45:15;;;;;;;21.05;14.88;;;1.20;99.90;;;;;;5073542;28;20228;-73
2022/01/11 02:47:42;;;;;;;20.25;13.60;;;1.20;99.90;;;;;;5073554;28;20207;-73
2022/01/11 02:50:10;;;;;;;21.50;14.35;;;1.20;99.90;;;;;;5073751;28;20205;-73
2022/01/11 02:52:37;;;;;;;26.65;15.75;;;1.30;99.90;;;;;;5072927;28;20204;-73
2022/01/11 02:55:09;;;;;;;22.88;15.43;;;1.30;99.90;;;;;;5073594;28;20221;-74
2022/01/11 02:57:37;;;;;;;21.63;13.98;;;1.30;99.90;;;;;;5073711;28;20215;-74
2022/01/11 03:00:06;;;;;;;23.33;14.85;;;1.20;99.90;;;;;;5074181;28;20212;-73
2022/01/11 03:02:33;;;;;;;25.60;14.63;;;1.20;99.90;;;;;;5072736;28;20200;-74
2022/01/11 03:04:59;;;;;;;21.95;13.13;;;1.20;99.90;;;;;;5073722;28;20239;-74
2022/01/11 03:07:26;;;;;;;23.13;13.45;;;1.20;99.90;;;;;;5073447;28;20205;-74
2022/01/11 03:10:02;;;;;;;24.55;15.00;;;1.20;99.90;;;;;;5073565;28;20208;-74
2022/01/11 03:12:30;;;;;;;21.90;14.13;;;1.20;99.90;;;;;;5072874;28;20204;-74
2022/01/11 03:14:57;;;;;;;21.88;14.30;;;1.20;99.90;;;;;;5073451;28;20227;-74
2022/01/11 03:17:25;;;;;;;26.63;15.10;;;1.20;99.90;;;;;;5073332;28;20196;-74
2022/01/11 03:19:53;;;;;;;21.42;15.07;;;1.20;99.90;;;;;;5073590;28;20250;-74
2022/01/11 03:22:20;;;;;;;27.02;15.05;;;1.20;99.90;;;;;;5072883;28;20232;-74
2022/01/11 03:24:47;;;;;;;22.73;14.30;;;1.20;99.90;;;;;;5073209;28;20595;-74
2022/01/11 03:27:14;;;;;;;22.20;14.77;;;1.30;99.90;;;;;;5073334;28;20208;-74
2022/01/11 03:29:42;;;;;;;24.88;16.00;;;1.30;99.90;;;;;;5072941;28;20197;-73
2022/01/11 03:32:10;;;;;;;24.88;15.20;;;1.30;99.90;;;;;;5072595;28;20204;-74
2022/01/11 03:34:37;;;;;;;21.20;14.38;;;1.30;99.90;;;;;;5072973;28;20217;-74
2022/01/11 03:37:04;;;;;;;21.98;14.98;;;1.30;99.90;;;;;;5073175;28;20287;-74
2022/01/11 03:39:32;;;;;;;22.55;14.20;;;1.30;99.90;;;;;;5072996;28;20208;-74
2022/01/11 03:41:58;;;;;;;20.92;13.38;;;1.30;99.90;;;;;;5072944;28;20207;-74
2022/01/11 03:44:25;;;;;;;25.10;15.73;;;1.30;99.90;;;;;;5072882;28;20637;-74
2022/01/11 03:46:53;;;;;;;22.42;14.07;;;1.40;99.90;;;;;;5071815;28;20216;-74
2022/01/11 03:49:20;;;;;;;25.52;15.27;;;1.40;99.90;;;;;;5072863;28;20209;-73
2022/01/11 03:51:50;;;;;;;17.90;13.90;;;1.40;99.90;;;;;;5072396;28;20212;-73
2022/01/11 03:54:23;;;;;;;18.83;13.95;;;1.40;99.90;;;;;;5072950;28;20239;-70
2022/01/11 03:56:50;;;;;;;20.90;14.02;;;1.40;99.90;;;;;;5072906;28;20212;-72
2022/01/11 03:59:18;;;;;;;25.35;14.95;;;1.40;99.90;;;;;;5072744;28;20689;-73
2022/01/11 04:01:45;;;;;;;20.65;14.00;;;1.40;99.90;;;;;;5071829;28;20208;-74
2022/01/11 04:04:14;;;;;;;24.00;14.95;;;1.30;99.90;;;;;;5072636;28;20228;-73
2022/01/11 04:06:42;;;;;;;22.88;15.18;;;1.30;99.90;;;;;;5072534;28;20223;-73
2022/01/11 04:09:13;;;;;;;22.48;13.65;;;1.30;99.90;;;;;;5112379;22;20700;-76
2022/01/11 04:11:40;;;;;;;25.70;15.02;;;1.30;99.90;;;;;;5031124;28;20198;-78
2022/01/11 04:14:06;;;;;;;28.15;16.00;;;1.30;99.90;;;;;;5032724;28;20220;-77
2022/01/11 04:16:33;;;;;;;25.90;15.60;;;1.30;99.90;;;;;;5032768;28;20206;-76
2022/01/11 04:19:00;;;;;;;22.08;14.60;;;1.30;99.90;;;;;;5032551;28;20209;-77
2022/01/11 04:21:28;;;;;;;25.83;15.00;;;1.30;99.90;;;;;;5032203;28;20209;-76
2022/01/11 04:23:55;;;;;;;24.92;14.60;;;1.30;99.90;;;;;;5032111;28;20253;-77
2022/01/11 04:26:22;;;;;;;20.25;14.48;;;1.30;99.90;;;;;;5032583;28;20209;-76
2022/01/11 04:28:48;;;;;;;23.45;14.75;;;1.20;99.90;;;;;;5032283;28;20205;-76
2022/01/11 04:31:15;;;;;;;28.33;19.05;;;1.20;99.90;;;;;;5030709;28;20960;-76
2022/01/11 04:33:43;;;;;;;23.52;14.43;;;1.30;99.90;;;;;;5047960;28;20224;-76
2022/01/11 04:36:11;;;;;;;23.05;14.60;;;1.30;99.90;;;;;;5043457;28;20721;-75
2022/01/11 04:38:40;;;;;;;23.95;16.67;;;1.30;99.90;;;;;;5036751;28;20461;-77
2022/01/11 04:41:06;;;;;;;27.65;16.23;;;1.30;99.90;;;;;;5047007;28;20209;-77
2022/01/11 04:43:33;;;;;;;24.35;16.35;;;1.30;99.90;;;;;;5050856;28;20250;-76
2022/01/11 04:46:00;;;;;;;24.05;14.88;;;1.30;99.90;;;;;;5049889;28;20624;-76
2022/01/11 04:48:29;;;;;;;28.08;15.43;;;1.30;99.90;;;;;;5049922;28;20209;-76
2022/01/11 04:50:56;;;;;;;31.80;16.95;;;1.30;99.90;;;;;;5051389;28;20692;-78
2022/01/11 04:53:23;;;;;;;21.48;13.85;;;1.30;99.90;;;;;;5052532;28;20672;-77
2022/01/11 04:55:51;;;;;;;23.52;14.50;;;1.20;99.90;;;;;;5051975;28;20580;-76
2022/01/11 04:58:18;;;;;;;24.38;14.80;;;1.30;99.90;;;;;;5051407;28;20205;-77
2022/01/11 05:00:45;;;;;;;21.67;14.73;;;1.20;99.90;;;;;;5048171;28;20284;-77
2022/01/11 05:03:12;;;;;;;22.33;15.02;;;1.30;99.90;;;;;;5040407;28;20209;-77
2022/01/11 05:05:39;;;;;;;27.52;16.05;;;1.30;99.90;;;;;;5041066;28;20220;-77
2022/01/11 05:08:06;;;;;;;24.17;15.05;;;1.30;99.90;;;;;;5048952;28;20192;-77
2022/01/11 05:10:33;;;;;;;29.00;15.82;;;1.30;99.90;;;;;;5049123;28;20578;-76
2022/01/11 05:13:04;;;;;;;22.50;14.77;;;1.30;99.90;;;;;;5048512;28;20254;-77
2022/01/11 05:15:31;;;;;;;21.85;15.20;;;1.40;99.90;;;;;;5044228;28;20221;-75
2022/01/11 05:17:57;;;;;;;28.88;17.02;;;1.40;99.90;;;;;;5039680;28;20468;-75
2022/01/11 05:20:24;;;;;;;26.35;15.90;;;1.40;99.90;;;;;;5039328;28;20193;-73
2022/01/11 05:22:51;;;;;;;31.30;18.13;;;1.40;99.90;;;;;;5037489;28;20209;-74
2022/01/11 05:25:17;;;;;;;26.60;16.02;;;1.50;99.90;;;;;;5041827;28;20745;-74
2022/01/11 05:27:44;;;;;;;24.45;15.95;;;1.50;99.90;;;;;;5042393;28;20194;-74
2022/01/11 05:30:13;;;;;;;23.95;15.07;;;1.50;99.90;;;;;;5035407;28;20691;-74
2022/01/11 05:32:42;;;;;;;22.75;15.27;;;1.60;99.90;;;;;;5038152;28;20201;-73
2022/01/11 05:35:11;;;;;;;26.77;16.45;;;1.60;99.90;;;;;;5047563;28;20308;-72
2022/01/11 05:37:38;;;;;;;25.08;17.05;;;1.60;99.90;;;;;;5039996;28;20198;-74
2022/01/11 05:40:07;;;;;;;28.10;16.50;;;1.70;99.90;;;;;;5028385;28;20214;-76
2022/01/11 05:42:34;;;;;;;27.77;17.45;;;1.70;99.90;;;;;;5027836;28;20237;-74
2022/01/11 05:45:01;;;;;;;28.35;17.10;;;1.70;99.90;;;;;;5028630;28;20221;-74
2022/01/11 05:47:29;;;;;;;29.52;17.67;;;1.70;99.90;;;;;;5030205;28;20205;-74
2022/01/11 05:49:56;;;;;;;29.85;17.52;;;1.70;99.90;;;;;;5030953;28;20877;-74
2022/01/11 05:52:22;;;;;;;31.00;19.00;;;1.70;99.90;;;;;;5030571;28;20692;-75
2022/01/11 05:54:49;;;;;;;29.65;16.88;;;1.70;99.90;;;;;;5030876;28;20230;-75
2022/01/11 05:57:16;;;;;;;28.85;18.08;;;1.70;99.90;;;;;;5030615;28;20608;-75
2022/01/11 05:59:42;;;;;;;27.55;16.60;;;1.70;99.90;;;;;;5030997;28;20209;-75
2022/01/11 06:02:09;;;;;;;28.65;17.80;;;1.70;99.90;;;;;;5030158;28;20245;-75
2022/01/11 06:04:37;;;;;;;25.15;16.52;;;1.80;99.90;;;;;;5030811;28;20217;-75
2022/01/11 06:07:04;;;;;;;27.23;17.17;;;1.80;99.90;;;;;;5030530;28;20202;-75
2022/01/11 06:09:31;;;;;;;27.17;16.73;;;1.80;99.90;;;;;;5030505;28;20210;-75
2022/01/11 06:11:57;;;;;;;27.67;17.00;;;1.80;99.90;;;;;;5029520;28;20673;-73
2022/01/11 06:14:24;;;;;;;25.90;17.35;;;1.80;99.90;;;;;;5030753;28;20222;-75
2022/01/11 06:16:51;;;;;;;27.25;15.73;;;1.80;99.90;;;;;;5030507;28;20212;-75
2022/01/11 06:19:18;;;;;;;28.38;17.80;;;1.80;99.90;;;;;;5030675;28;20621;-75
2022/01/11 06:21:46;;;;;;;27.30;16.80;;;1.80;99.90;;;;;;5030086;28;20292;-74
2022/01/11 06:24:13;;;;;;;24.00;16.25;;;1.80;99.90;;;;;;5030430;28;20237;-75
2022/01/11 06:26:41;;;;;;;24.80;16.70;;;1.80;99.90;;;;;;5030299;28;20727;-75
2022/01/11 06:29:08;;;;;;;28.80;15.40;;;1.80;99.90;;;;;;5030236;28;20260;-74
2022/01/11 06:31:35;;;;;;;26.33;16.83;;;1.80;99.90;;;;;;5030122;28;20574;-73
2022/01/11 06:34:01;;;;;;;27.13;17.75;;;1.80;99.90;;;;;;5030259;28;20264;-75
2022/01/11 06:36:28;;;;;;;26.05;16.98;;;1.80;99.90;;;;;;5030590;28;20201;-75
2022/01/11 06:38:57;;;;;;;26.50;16.75;;;1.80;99.90;;;;;;5030246;28;20593;-74
2022/01/11 06:41:24;;;;;;;26.75;16.17;;;1.80;99.90;;;;;;5029791;28;20209;-74
2022/01/11 06:43:53;;;;;;;34.78;17.00;;;1.80;99.90;;;;;;5029595;28;20271;-75
2022/01/11 06:46:21;;;;;;;24.35;16.40;;;1.80;99.90;;;;;;5030426;28;20222;-74
2022/01/11 06:48:48;;;;;;;29.75;16.88;;;1.80;99.90;;;;;;5030217;28;20627;-73
2022/01/11 06:51:14;;;;;;;24.98;16.10;;;1.80;99.90;;;;;;5029747;28;20202;-75
2022/01/11 06:53:41;;;;;;;31.23;17.38;;;1.80;99.90;;;;;;5030337;28;20229;-73
2022/01/11 06:56:09;;;;;;;24.33;14.57;;;1.80;99.90;;;;;;5030331;28;20613;-73
2022/01/11 06:58:38;;;;;;;28.27;16.08;;;1.80;99.90;;;;;;5030426;28;20209;-74
2022/01/11 07:01:04;;;;;;;24.35;15.63;;;1.80;99.90;;;;;;5030602;28;20209;-75
2022/01/11 07:03:31;;;;;;;23.90;16.00;;;1.80;99.90;;;;;;5032471;28;20237;-73
2022/01/11 07:05:58;;;;;;;25.73;16.80;;;1.80;99.90;;;;;;5032681;28;20221;-72
2022/01/11 07:08:25;;;;;;;29.75;15.50;;;1.80;99.90;;;;;;5034767;28;20586;-73
2022/01/11 07:10:54;;;;;;;25.27;16.42;;;1.80;99.90;;;;;;5030311;28;20206;-72
2022/01/11 07:13:22;;;;;;;23.13;14.65;;;1.80;99.90;;;;;;5031409;28;20198;-74
2022/01/11 07:15:48;;;;;;;28.17;16.00;;;1.90;99.90;;;;;;5030197;28;20684;-74
2022/01/11 07:18:15;;;;;;;23.95;16.83;;;1.90;99.90;;;;;;5030566;28;20213;-74
2022/01/11 07:20:43;;;;;;;27.60;17.50;;;1.90;99.90;;;;;;5029699;28;20228;-72
2022/01/11 07:23:11;;;;;;;24.23;16.13;;;1.90;99.90;;;;;;5031566;28;20740;-74
2022/01/11 07:25:37;;;;;;;23.38;15.70;;;1.90;99.90;;;;;;5033515;28;20645;-76
2022/01/11 07:28:05;;;;;;;24.08;15.50;;;1.90;99.90;;;;;;5033200;28;20802;-71
2022/01/11 07:30:33;;;;;;;27.73;15.75;;;1.90;99.90;;;;;;5033626;28;20225;-71
2022/01/11 07:33:00;;;;;;;24.02;16.02;;;1.90;99.90;;;;;;5032520;28;20205;-71
2022/01/11 07:35:27;;;;;;;22.35;14.73;;;1.90;99.90;;;;;;5033439;28;20228;-71
2022/01/11 07:37:54;;;;;;;23.25;15.00;;;1.90;99.90;;;;;;5032840;28;20210;-74
2022/01/11 07:40:21;;;;;;;25.08;16.50;;;1.90;99.90;;;;;;5033212;28;20608;-74
2022/01/11 07:42:49;;;;;;;22.80;15.55;;;1.90;99.90;;;;;;5033003;28;20198;-76
2022/01/11 07:45:16;;;;;;;21.08;14.50;;;1.90;99.90;;;;;;5033342;28;20275;-73
2022/01/11 07:47:44;;;;;;;25.60;15.18;;;1.90;99.90;;;;;;5033045;28;20206;-72
2022/01/11 07:50:12;;;;;;;23.45;15.60;;;1.90;99.90;;;;;;5033040;28;20214;-73
2022/01/11 07:52:39;;;;;;;24.58;15.75;;;1.90;99.90;;;;;;5032523;28;20682;-72
2022/01/11 07:55:07;;;;;;;19.70;13.32;;;1.90;99.90;;;;;;5032817;28;20221;-72
2022/01/11 07:57:34;;;;;;;21.92;15.00;;;2.00;99.90;;;;;;5029019;28;20208;-72
2022/01/11 08:00:01;;;;;;;23.48;14.40;;;2.00;99.90;;;;;;5030491;28;20260;-75
2022/01/11 08:02:28;;;;;;;22.50;14.30;;;2.00;99.90;;;;;;5030807;28;20297;-73
2022/01/11 08:04:56;;;;;;;22.15;14.18;;;2.00;99.90;;;;;;5030866;28;21090;-73
2022/01/11 08:07:23;;;;;;;20.60;14.35;;;2.10;99.90;;;;;;5031478;28;20198;-73
2022/01/11 08:09:50;;;;;;;19.65;14.93;;;2.10;99.90;;;;;;5031544;28;20232;-74
2022/01/11 08:12:17;;;;;;;21.48;13.80;;;2.10;99.90;;;;;;5030394;28;20217;-73
2022/01/11 08:14:44;;;;;;;22.40;14.82;;;2.10;99.90;;;;;;5031061;28;20321;-73
2022/01/11 08:17:11;;;;;;;22.77;14.70;;;2.10;99.90;;;;;;5031288;28;20212;-73
2022/01/11 08:19:38;;;;;;;21.88;15.63;;;2.20;99.90;;;;;;5030851;28;20205;-74
2022/01/11 08:22:07;;;;;;;26.70;16.00;;;2.20;99.90;;;;;;5031363;28;20205;-72
2022/01/11 08:24:34;;;;;;;24.83;15.23;;;2.20;99.90;;;;;;5030919;28;20222;-74
2022/01/11 08:27:01;;;;;;;26.85;15.27;;;2.20;99.90;;;;;;5030951;28;20226;-72
2022/01/11 08:29:28;;;;;;;23.65;14.15;;;2.30;99.90;;;;;;5030937;28;20240;-75
2022/01/11 08:31:56;;;;;;;23.35;14.73;;;2.30;99.90;;;;;;5030445;28;20259;-72
2022/01/11 08:34:22;;;;;;;21.58;16.33;;;2.40;99.90;;;;;;5029912;28;20222;-73
2022/01/11 08:36:50;;;;;;;26.38;15.88;;;2.40;99.90;;;;;;5031016;28;20205;-72
2022/01/11 08:39:19;;;;;;;20.50;14.00;;;2.40;99.90;;;;;;5030881;28;20229;-74
2022/01/11 08:41:46;;;;;;;20.17;14.30;;;2.50;99.90;;;;;;5032087;28;20241;-73
2022/01/11 08:44:13;;;;;;;20.83;14.68;;;2.50;99.90;;;;;;5050923;28;20225;-74
2022/01/11 08:46:42;;;;;;;22.90;13.80;;;2.50;99.90;;;;;;5050609;28;20220;-73
2022/01/11 08:49:10;;;;;;;24.50;16.00;;;2.60;99.90;;;;;;5050205;28;20213;-73
2022/01/11 08:51:37;;;;;;;21.55;15.52;;;2.60;99.90;;;;;;5050170;28;20201;-70
2022/01/11 08:54:04;;;;;;;20.20;15.55;;;2.60;99.90;;;;;;5033312;28;20233;-72
2022/01/11 08:56:33;;;;;;;26.05;15.68;;;2.60;99.90;;;;;;5040378;28;20198;-71
2022/01/11 08:59:00;;;;;;;22.23;14.32;;;2.70;99.90;;;;;;5036560;28;20230;-71
2022/01/11 09:01:27;;;;;;;20.77;13.63;;;2.80;99.90;;;;;;5030463;28;20210;-71
2022/01/11 09:03:54;;;;;;;22.42;16.20;;;2.90;99.90;;;;;;5029931;28;20237;-71
2022/01/11 09:06:21;;;;;;;29.40;17.23;;;3.00;99.90;;;;;;5030427;28;20225;-76
2022/01/11 09:08:48;;;;;;;28.10;17.33;;;3.00;99.90;;;;;;5030147;28;20673;-72
2022/01/11 09:11:15;;;;;;;21.58;16.23;;;3.10;99.90;;;;;;5029490;28;20214;-71
2022/01/11 09:13:43;;;;;;;25.67;17.15;;;3.10;99.90;;;;;;5030347;28;20696;-71
2022/01/11 09:16:11;;;;;;;22.02;15.48;;;3.20;99.90;;;;;;5030302;28;20205;-72
2022/01/11 09:18:38;;;;;;;26.63;16.90;;;3.30;99.90;;;;;;5030298;28;20592;-73
2022/01/11 09:21:05;;;;;;;27.63;16.15;;;3.30;99.90;;;;;;5030021;28;20202;-74
2022/01/11 09:23:34;;;;;;;25.98;16.38;;;3.30;99.90;;;;;;5031003;28;20202;-72
2022/01/11 09:26:02;;;;;;;24.75;16.27;;;3.30;99.90;;;;;;5044185;28;20227;-73
2022/01/11 09:28:28;;;;;;;20.17;15.48;;;3.30;99.90;;;;;;5049804;28;20212;-72
2022/01/11 09:30:56;;;;;;;26.40;16.65;;;3.40;99.90;;;;;;5050392;28;20216;-72
2022/01/11 09:33:23;;;;;;;22.75;16.00;;;3.40;99.90;;;;;;5050192;28;20201;-71
2022/01/11 09:35:50;;;;;;;22.55;16.60;;;3.50;99.90;;;;;;5050445;28;20201;-73
2022/01/11 09:38:17;;;;;;;21.35;16.67;;;3.50;99.90;;;;;;5050202;28;20207;-73
2022/01/11 09:40:44;;;;;;;18.13;15.45;;;3.50;99.90;;;;;;5049776;28;20208;-73
2022/01/11 09:43:12;;;;;;;26.45;14.45;;;3.50;99.90;;;;;;5050184;28;20200;-72
2022/01/11 09:45:39;;;;;;;24.55;14.65;;;3.50;99.90;;;;;;5049664;28;20225;-73
2022/01/11 09:48:07;;;;;;;20.35;15.57;;;3.40;99.90;;;;;;5050889;28;20208;-73
2022/01/11 09:50:34;;;;;;;21.45;14.98;;;3.40;99.90;;;;;;5039307;28;20260;-71
2022/01/11 09:53:02;;;;;;;21.67;14.80;;;3.50;99.90;;;;;;5030099;28;20210;-70
2022/01/11 09:55:29;;;;;;;24.38;15.45;;;3.50;99.90;;;;;;5030307;28;20642;-71
2022/01/11 09:57:56;;;;;;;20.15;14.50;;;3.50;99.90;;;;;;5030000;28;20606;-72
2022/01/11 10:00:23;;;;;;;25.33;16.20;;;3.60;99.90;;;;;;5031571;28;20206;-70
2022/01/11 10:02:50;;;;;;;23.00;14.90;;;3.60;99.90;;;;;;5029960;28;20202;-71
2022/01/11 10:05:18;;;;;;;25.98;16.95;;;3.60;99.90;;;;;;5030209;28;20761;-70
2022/01/11 10:07:45;;;;;;;25.70;17.13;;;3.60;99.90;;;;;;5029811;28;20257;-70
2022/01/11 10:10:14;;;;;;;69.25;36.00;;;3.70;99.90;;;;;;5026096;28;20213;-72
2022/01/11 10:12:43;;;;;;;87.28;44.38;;;3.80;99.90;;;;;;5029531;28;20209;-71
2022/01/11 10:15:10;;;;;;;112.50;52.70;;;3.80;99.90;;;;;;5027534;28;20280;-70
2022/01/11 10:17:40;;;;;;;70.45;34.47;;;3.90;99.90;;;;;;5030375;28;20198;-70
2022/01/11 10:20:10;;;;;;;62.20;29.70;;;4.00;99.90;;;;;;5029450;28;20205;-71
2022/01/11 10:22:48;;;;;;;53.30;27.67;;;4.10;99.90;;;;;;5029697;28;20209;-71
2022/01/11 10:25:15;;;;;;;22.58;14.90;;;4.10;99.90;;;;;;5029500;28;20324;-75
2022/01/11 10:27:42;;;;;;;23.48;15.75;;;4.10;99.90;;;;;;5029994;28;20221;-74
2022/01/11 10:30:11;;;;;;;28.63;16.88;;;4.20;99.90;;;;;;5030202;28;20201;-70
2022/01/11 10:32:40;;;;;;;21.55;15.65;;;4.20;99.90;;;;;;5028356;28;20213;-69
2022/01/11 10:35:09;;;;;;;16.60;11.57;;;4.40;99.90;;;;;;5030561;28;20708;-69
2022/01/11 10:37:38;;;;;;;16.52;10.25;;;4.40;99.90;;;;;;5029443;28;20205;-70
2022/01/11 10:40:11;;;;;;;16.00;10.07;;;4.50;99.90;;;;;;5066261;22;20737;-91
2022/01/11 10:42:44;;;;;;;14.18;8.65;;;4.50;99.90;;;;;;5047201;28;20193;-92
2022/01/11 10:47:59;;;;;;;9.68;7.70;;;4.60;99.90;;;;;;5033983;28;20229;-92
2022/01/11 10:50:39;;;;;;;28.95;18.00;;;4.70;99.90;;;;;;5035685;28;20633;-92
2022/01/11 10:53:13;;;;;;;14.82;9.27;;;4.70;99.90;;;;;;5034531;28;20255;-93
2022/01/11 10:55:43;;;;;;;11.57;7.70;;;5.00;99.90;;;;;;5021656;28;20199;-91
2022/01/11 10:58:13;;;;;;;13.35;9.15;;;5.20;99.90;;;;;;5018483;28;20218;-93
2022/01/11 11:00:41;;;;;;;10.60;7.75;;;5.40;99.90;;;;;;5018268;28;20207;-91
2022/01/11 11:03:10;;;;;;;10.38;6.63;;;5.40;99.90;;;;;;5017556;28;20198;-92
2022/01/11 11:05:43;;;;;;;11.18;8.70;;;5.40;99.90;;;;;;5018336;28;20210;-92
2022/01/11 11:08:13;;;;;;;9.20;7.40;;;5.40;99.90;;;;;;5021107;28;20234;-91
2022/01/11 11:10:48;;;;;;;9.25;7.32;;;5.40;99.90;;;;;;5017603;28;20216;-92
2022/01/11 11:13:21;;;;;;;9.07;7.55;;;5.40;99.90;;;;;;5021181;28;20210;-92
2022/01/11 11:15:51;;;;;;;8.65;6.95;;;5.40;99.90;;;;;;5018426;28;20206;-92
2022/01/11 11:18:30;;;;;;;7.45;6.70;;;5.60;99.90;;;;;;5017209;28;20317;-91
2022/01/11 11:21:13;;;;;;;9.48;6.60;;;5.70;99.90;;;;;;5020013;28;20236;-93
2022/01/11 11:26:51;;;;;;;9.10;5.93;;;5.90;99.90;;;;;;5026398;28;20226;-92
2022/01/11 11:32:52;;;;;;;6.20;5.57;;;6.00;99.90;;;;;;5021659;28;20206;-92
2022/01/11 11:35:19;;;;;;;7.22;5.13;;;5.90;99.90;;;;;;5052943;23;20237;-72
2022/01/11 11:37:48;;;;;;;6.85;5.70;;;5.90;99.90;;;;;;5032536;28;20202;-72
2022/01/11 11:40:17;;;;;;;9.82;6.28;;;5.80;99.90;;;;;;5032406;28;20211;-73
2022/01/11 11:42:46;;;;;;;7.32;6.47;;;5.70;99.90;;;;;;5032127;28;20225;-72
2022/01/11 11:45:19;;;;;;;5.40;4.90;;;5.50;99.90;;;;;;5032745;28;20233;-72
2022/01/11 11:47:46;;;;;;;8.65;5.20;;;5.30;99.90;;;;;;5032153;28;20594;-73
2022/01/11 11:50:17;;;;;;;6.93;4.85;;;5.20;99.90;;;;;;5033779;28;20852;-73
2022/01/11 11:52:46;;;;;;;6.90;5.30;;;5.10;99.90;;;;;;5032639;28;20198;-70
2022/01/11 11:55:20;;;;;;;6.13;5.05;;;5.20;99.90;;;;;;5032172;28;20229;-76
2022/01/11 11:57:50;;;;;;;5.20;4.68;;;5.30;99.90;;;;;;5040553;28;20279;-74
2022/01/11 12:00:20;;;;;;;6.00;4.60;;;5.20;99.90;;;;;;5052558;28;20204;-74
2022/01/11 12:02:48;;;;;;;7.82;5.70;;;5.20;99.90;;;;;;5052873;28;20663;-72
2022/01/11 12:05:31;;;;;;;8.23;5.50;;;5.10;99.90;;;;;;5041512;28;20229;-73
2022/01/11 12:07:58;;;;;;;7.28;5.00;;;5.00;99.90;;;;;;5031803;28;20222;-72
2022/01/11 12:10:52;;;;;;;5.35;4.20;;;4.80;99.90;;;;;;5034732;28;20208;-72
2022/01/11 12:13:42;;;;;;;5.28;4.40;;;4.60;99.90;;;;;;5033583;28;20300;-72
2022/01/11 12:16:50;;;;;;;5.28;4.43;;;4.60;99.90;;;;;;5023932;28;20209;-71
2022/01/11 12:19:40;;;;;;;5.05;3.70;;;4.70;99.90;;;;;;5031466;28;20198;-73
2022/01/11 12:22:22;;;;;;;6.10;3.58;;;4.70;99.90;;;;;;5031476;28;20202;-73
2022/01/11 12:24:50;;;;;;;4.65;4.05;;;4.70;99.90;;;;;;5032111;28;20225;-72
2022/01/11 12:27:19;;;;;;;5.28;3.30;;;4.80;99.90;;;;;;5031852;28;20221;-73
2022/01/11 12:29:57;;;;;;;5.13;4.63;;;4.80;99.90;;;;;;5031990;28;20198;-71
2022/01/11 12:32:25;;;;;;;3.92;3.28;;;4.90;99.90;;;;;;5031195;28;20201;-73
2022/01/11 12:34:55;;;;;;;7.40;3.55;;;5.10;99.90;;;;;;5031605;28;20238;-74
2022/01/11 12:37:28;;;;;;;6.43;3.40;;;5.40;99.90;;;;;;5031504;28;20579;-74
2022/01/11 12:40:25;;;;;;;3.28;2.90;;;5.70;99.90;;;;;;5031895;28;20225;-73
2022/01/11 12:43:03;;;;;;;4.32;3.30;;;6.20;99.90;;;;;;5031325;28;20228;-74
2022/01/11 12:46:04;;;;;;;4.00;3.63;;;6.20;99.90;;;;;;5041703;28;20225;-71
2022/01/11 12:48:58;;;;;;;4.32;3.40;;;6.00;99.90;;;;;;5051157;28;20235;-71
2022/01/11 12:51:28;;;;;;;3.95;3.58;;;5.70;99.90;;;;;;5050415;28;20208;-73
2022/01/11 12:54:28;;;;;;;4.22;3.47;;;5.60;99.90;;;;;;5050534;28;20265;-72
2022/01/11 12:56:56;;;;;;;4.70;4.20;;;5.50;99.90;;;;;;5009558;28;20229;-73
2022/01/11 12:59:27;;;;;;;3.60;3.30;;;5.40;99.90;;;;;;5042104;28;20219;-74